createdAt,value
2019-04-09T00:00:21.706Z,35.30
2019-04-09T00:01:21.698Z,33.50
2019-04-09T00:02:21.825Z,37.10
2019-04-09T00:03:21.686Z,35.20
2019-04-09T00:04:21.681Z,40.80
2019-04-09T00:05:21.677Z,35.00
2019-04-09T00:06:21.665Z,33.70
2019-04-09T00:07:21.662Z,32.90
2019-04-09T00:08:21.659Z,37.90
2019-04-09T00:09:21.649Z,36.20
2019-04-09T00:10:22.093Z,33.90
2019-04-09T00:11:22.128Z,37.10
2019-04-09T00:12:21.810Z,40.30
2019-04-09T00:13:21.620Z,34.50
2019-04-09T00:14:22.064Z,35.40
2019-04-09T00:15:21.614Z,31.70
2019-04-09T00:16:21.605Z,36.60
2019-04-09T00:17:21.881Z,35.70
2019-04-09T00:18:21.594Z,35.60
2019-04-09T00:19:21.583Z,37.70
2019-04-09T00:20:22.409Z,34.00
2019-04-09T00:21:21.575Z,36.50
2019-04-09T00:22:21.564Z,40.60
2019-04-09T00:23:22.474Z,37.40
2019-04-09T00:24:21.552Z,34.10
2019-04-09T00:25:22.141Z,42.90
2019-04-09T00:26:21.917Z,38.70
2019-04-09T00:27:22.564Z,34.60
2019-04-09T00:28:21.528Z,38.30
2019-04-09T00:29:21.521Z,37.90
2019-04-09T00:30:21.517Z,39.10
2019-04-09T00:31:21.505Z,34.20
2019-04-09T00:32:21.515Z,31.70
2019-04-09T00:33:21.953Z,33.90
2019-04-09T00:34:21.833Z,37.10
2019-04-09T00:35:21.485Z,34.30
2019-04-09T00:36:21.755Z,33.60
2019-04-09T00:37:21.467Z,37.30
2019-04-09T00:38:21.460Z,34.90
2019-04-09T00:39:21.451Z,34.10
2019-04-09T00:40:21.850Z,40.50
2019-04-09T00:41:22.987Z,37.10
2019-04-09T00:42:21.433Z,39.30
2019-04-09T00:43:21.430Z,35.10
2019-04-09T00:44:22.159Z,34.40
2019-04-09T00:45:22.184Z,39.40
2019-04-09T00:46:21.403Z,33.60
2019-04-09T00:47:22.101Z,39.00
2019-04-09T00:48:21.917Z,37.30
2019-04-09T00:49:21.384Z,35.70
2019-04-09T00:50:21.379Z,33.60
2019-04-09T00:51:22.372Z,33.70
2019-04-09T00:52:22.285Z,36.00
2019-04-09T00:53:21.365Z,39.00
2019-04-09T00:54:21.353Z,39.20
2019-04-09T00:55:21.347Z,36.70
2019-04-09T00:56:21.602Z,43.30
2019-04-09T00:57:21.343Z,38.10
2019-04-09T00:58:21.326Z,36.60
2019-04-09T00:59:21.878Z,39.00
2019-04-09T01:00:21.526Z,39.80
2019-04-09T01:01:21.887Z,39.10
2019-04-09T01:02:22.456Z,38.00
2019-04-09T01:03:21.864Z,40.10
2019-04-09T01:04:21.713Z,38.20
2019-04-09T01:05:21.621Z,46.70
2019-04-09T01:06:21.275Z,40.40
2019-04-09T01:07:21.266Z,41.60
2019-04-09T01:08:21.261Z,42.80
2019-04-09T01:09:21.253Z,38.80
2019-04-09T01:10:22.097Z,44.00
2019-04-09T01:11:21.447Z,39.60
2019-04-09T01:12:21.233Z,38.40
2019-04-09T01:13:21.229Z,38.40
2019-04-09T01:14:21.928Z,43.50
2019-04-09T01:15:21.216Z,41.70
2019-04-09T01:16:22.080Z,46.90
2019-04-09T01:17:21.208Z,37.30
2019-04-09T01:18:21.207Z,43.30
2019-04-09T01:19:22.115Z,43.20
2019-04-09T01:20:21.192Z,36.40
2019-04-09T01:21:21.174Z,38.30
2019-04-09T01:22:21.182Z,37.80
2019-04-09T01:23:22.190Z,40.60
2019-04-09T01:24:33.173Z,35.30
2019-04-09T01:25:22.204Z,40.70
2019-04-09T01:26:22.201Z,42.50
2019-04-09T01:27:23.105Z,49.40
2019-04-09T01:28:21.370Z,40.20
2019-04-09T01:29:22.895Z,36.30
2019-04-09T01:30:21.526Z,42.70
2019-04-09T01:31:21.459Z,42.00
2019-04-09T01:32:21.096Z,44.10
2019-04-09T01:33:21.090Z,40.70
2019-04-09T01:34:21.081Z,40.90
2019-04-09T01:35:21.075Z,39.70
2019-04-09T01:36:21.221Z,41.40
2019-04-09T01:37:21.061Z,42.30
2019-04-09T01:38:21.051Z,42.20
2019-04-09T01:39:21.043Z,42.80
2019-04-09T01:40:21.574Z,38.00
2019-04-09T01:41:21.458Z,43.30
2019-04-09T01:42:21.027Z,41.00
2019-04-09T01:43:21.019Z,38.90
2019-04-09T01:44:21.406Z,44.10
2019-04-09T01:45:21.317Z,34.90
2019-04-09T01:46:21.002Z,35.50
2019-04-09T01:47:20.991Z,39.40
2019-04-09T01:48:20.981Z,33.70
2019-04-09T01:49:20.978Z,42.30
2019-04-09T01:50:21.477Z,41.30
2019-04-09T01:51:20.965Z,39.40
2019-04-09T01:52:20.957Z,41.70
2019-04-09T01:53:21.619Z,42.20
2019-04-09T01:54:21.587Z,41.30
2019-04-09T01:55:21.567Z,39.30
2019-04-09T01:56:20.924Z,39.90
2019-04-09T01:57:26.507Z,38.40
2019-04-09T01:58:20.916Z,43.60
2019-04-09T01:59:20.909Z,41.70
2019-04-09T02:00:20.899Z,37.30
2019-04-09T02:01:21.772Z,44.10
2019-04-09T02:02:21.625Z,46.90
2019-04-09T02:03:20.872Z,37.20
2019-04-09T02:04:20.870Z,43.30
2019-04-09T02:05:21.014Z,41.10
2019-04-09T02:06:20.888Z,39.10
2019-04-09T02:07:20.849Z,40.70
2019-04-09T02:08:21.950Z,46.70
2019-04-09T02:09:21.714Z,39.80
2019-04-09T02:10:20.828Z,41.70
2019-04-09T02:11:20.821Z,41.70
2019-04-09T02:12:20.815Z,38.70
2019-04-09T02:13:20.806Z,43.30
2019-04-09T02:14:21.343Z,46.80
2019-04-09T02:15:21.199Z,42.20
2019-04-09T02:16:20.849Z,44.00
2019-04-09T02:17:20.778Z,41.10
2019-04-09T02:18:20.770Z,38.70
2019-04-09T02:19:21.183Z,44.10
2019-04-09T02:20:21.164Z,41.40
2019-04-09T02:21:20.747Z,40.50
2019-04-09T02:22:20.745Z,43.20
2019-04-09T02:23:20.737Z,41.70
2019-04-09T02:24:20.725Z,40.30
2019-04-09T02:25:20.923Z,39.20
2019-04-09T02:26:20.713Z,42.00
2019-04-09T02:27:22.161Z,38.10
2019-04-09T02:28:21.582Z,39.70
2019-04-09T02:29:20.743Z,38.80
2019-04-09T02:30:21.167Z,43.70
2019-04-09T02:31:22.280Z,37.30
2019-04-09T02:32:22.233Z,42.70
2019-04-09T02:33:21.444Z,44.10
2019-04-09T02:34:21.050Z,41.30
2019-04-09T02:35:21.305Z,40.90
2019-04-09T02:36:21.739Z,38.30
2019-04-09T02:37:22.102Z,37.50
2019-04-09T02:38:21.360Z,37.90
2019-04-09T02:39:20.613Z,45.60
2019-04-09T02:40:20.606Z,35.40
2019-04-09T02:41:21.164Z,41.90
2019-04-09T02:42:21.056Z,42.50
2019-04-09T02:43:20.587Z,34.70
2019-04-09T02:44:21.255Z,44.40
2019-04-09T02:45:20.575Z,40.50
2019-04-09T02:46:20.563Z,42.40
2019-04-09T02:47:20.556Z,38.50
2019-04-09T02:48:21.196Z,42.90
2019-04-09T02:49:20.996Z,43.70
2019-04-09T02:50:20.532Z,41.20
2019-04-09T02:51:20.529Z,42.00
2019-04-09T02:52:21.085Z,38.60
2019-04-09T02:53:21.007Z,40.10
2019-04-09T02:54:20.632Z,40.70
2019-04-09T02:55:20.497Z,40.60
2019-04-09T02:56:20.550Z,39.20
2019-04-09T02:57:20.479Z,38.60
2019-04-09T02:58:20.528Z,36.00
2019-04-09T02:59:20.463Z,36.80
2019-04-09T03:00:20.459Z,44.50
2019-04-09T03:01:21.377Z,41.50
2019-04-09T03:02:21.534Z,44.30
2019-04-09T03:03:21.327Z,42.70
2019-04-09T03:04:20.679Z,42.40
2019-04-09T03:05:20.473Z,44.50
2019-04-09T03:06:20.411Z,39.90
2019-04-09T03:07:21.312Z,42.10
2019-04-09T03:08:21.242Z,41.40
2019-04-09T03:09:20.395Z,42.30
2019-04-09T03:10:20.392Z,45.80
2019-04-09T03:11:20.378Z,45.50
2019-04-09T03:12:20.985Z,44.80
2019-04-09T03:13:20.613Z,40.10
2019-04-09T03:14:20.352Z,37.10
2019-04-09T03:15:20.350Z,41.30
2019-04-09T03:16:20.851Z,41.00
2019-04-09T03:17:20.329Z,38.90
2019-04-09T03:18:20.858Z,43.70
2019-04-09T03:19:20.756Z,39.60
2019-04-09T03:20:20.481Z,41.30
2019-04-09T03:21:20.303Z,42.30
2019-04-09T03:22:20.293Z,44.50
2019-04-09T03:23:20.721Z,36.40
2019-04-09T03:24:20.626Z,41.50
2019-04-09T03:25:20.271Z,40.30
2019-04-09T03:26:20.260Z,40.80
2019-04-09T03:27:20.396Z,41.80
2019-04-09T03:28:20.330Z,42.20
2019-04-09T03:29:20.339Z,43.00
2019-04-09T03:30:22.159Z,35.00
2019-04-09T03:31:20.630Z,41.10
2019-04-09T03:32:23.289Z,41.80
2019-04-09T03:33:21.049Z,42.50
2019-04-09T03:34:22.757Z,38.90
2019-04-09T03:35:21.137Z,52.80
2019-04-09T03:36:21.061Z,40.30
2019-04-09T03:37:20.986Z,42.50
2019-04-09T03:38:20.172Z,39.70
2019-04-09T03:39:20.163Z,42.40
2019-04-09T03:40:20.971Z,41.30
2019-04-09T03:41:20.754Z,38.20
2019-04-09T03:42:20.145Z,46.00
2019-04-09T03:43:20.951Z,42.10
2019-04-09T03:44:20.222Z,37.80
2019-04-09T03:45:20.123Z,43.80
2019-04-09T03:46:20.874Z,40.10
2019-04-09T03:47:20.105Z,39.30
2019-04-09T03:48:20.093Z,38.10
2019-04-09T03:49:20.416Z,36.50
2019-04-09T03:50:20.080Z,39.60
2019-04-09T03:51:20.071Z,37.20
2019-04-09T03:52:20.067Z,37.00
2019-04-09T03:53:20.763Z,35.30
2019-04-09T03:54:20.207Z,34.60
2019-04-09T03:55:20.282Z,37.00
2019-04-09T03:56:20.030Z,39.00
2019-04-09T03:57:20.029Z,34.40
2019-04-09T03:58:23.290Z,39.50
2019-04-09T03:59:20.686Z,35.30
2019-04-09T04:00:20.719Z,36.40
2019-04-09T04:01:19.996Z,40.70
2019-04-09T04:02:20.067Z,36.20
2019-04-09T04:03:20.076Z,36.90
2019-04-09T04:04:19.971Z,37.50
2019-04-09T04:05:20.819Z,35.30
2019-04-09T04:06:19.954Z,34.60
2019-04-09T04:07:19.947Z,36.60
2019-04-09T04:08:20.770Z,36.10
2019-04-09T04:09:20.769Z,36.00
2019-04-09T04:10:19.926Z,37.90
2019-04-09T04:11:20.089Z,39.50
2019-04-09T04:12:19.907Z,39.70
2019-04-09T04:13:20.372Z,38.60
2019-04-09T04:14:20.398Z,36.40
2019-04-09T04:15:20.443Z,40.80
2019-04-09T04:16:19.885Z,38.70
2019-04-09T04:17:20.074Z,39.40
2019-04-09T04:18:19.864Z,39.40
2019-04-09T04:19:19.854Z,37.90
2019-04-09T04:20:20.612Z,41.00
2019-04-09T04:21:19.840Z,36.60
2019-04-09T04:22:19.833Z,37.60
2019-04-09T04:23:19.826Z,40.50
2019-04-09T04:24:20.618Z,35.80
2019-04-09T04:25:20.102Z,35.00
2019-04-09T04:26:20.234Z,39.80
2019-04-09T04:27:19.793Z,40.00
2019-04-09T04:28:26.862Z,37.60
2019-04-09T04:29:19.777Z,33.70
2019-04-09T04:30:19.772Z,38.90
2019-04-09T04:31:19.763Z,41.80
2019-04-09T04:32:19.757Z,41.50
2019-04-09T04:33:19.749Z,41.00
2019-04-09T04:34:20.825Z,39.90
2019-04-09T04:35:20.120Z,42.30
2019-04-09T04:36:19.724Z,42.20
2019-04-09T04:37:20.482Z,43.00
2019-04-09T04:38:20.705Z,36.40
2019-04-09T04:39:19.697Z,35.90
2019-04-09T04:40:22.272Z,39.30
2019-04-09T04:41:21.154Z,40.70
2019-04-09T04:42:19.679Z,36.20
2019-04-09T04:43:19.675Z,41.50
2019-04-09T04:44:19.986Z,38.20
2019-04-09T04:45:20.028Z,37.80
2019-04-09T04:46:19.643Z,33.50
2019-04-09T04:47:19.704Z,35.20
2019-04-09T04:48:20.374Z,38.70
2019-04-09T04:49:20.469Z,32.30
2019-04-09T04:50:19.609Z,33.10
2019-04-09T04:51:20.258Z,36.40
2019-04-09T04:52:19.662Z,36.40
2019-04-09T04:53:19.595Z,29.60
2019-04-09T04:54:19.637Z,31.60
2019-04-09T04:55:19.577Z,30.50
2019-04-09T04:56:19.604Z,31.10
2019-04-09T04:57:20.687Z,35.30
2019-04-09T04:58:20.120Z,31.40
2019-04-09T04:59:20.069Z,30.40
2019-04-09T05:00:20.650Z,34.40
2019-04-09T05:01:19.983Z,36.60
2019-04-09T05:02:19.522Z,29.70
2019-04-09T05:03:20.131Z,31.10
2019-04-09T05:04:19.725Z,31.20
2019-04-09T05:05:19.578Z,32.00
2019-04-09T05:06:19.929Z,31.40
2019-04-09T05:07:19.482Z,29.70
2019-04-09T05:08:19.595Z,30.60
2019-04-09T05:09:19.464Z,32.50
2019-04-09T05:10:19.498Z,39.50
2019-04-09T05:11:19.450Z,36.50
2019-04-09T05:12:19.519Z,34.90
2019-04-09T05:13:19.437Z,34.80
2019-04-09T05:14:19.423Z,32.20
2019-04-09T05:15:19.468Z,33.70
2019-04-09T05:16:20.122Z,33.40
2019-04-09T05:17:20.495Z,33.20
2019-04-09T05:18:19.610Z,34.30
2019-04-09T05:19:20.233Z,29.90
2019-04-09T05:20:19.556Z,31.10
2019-04-09T05:21:19.369Z,31.90
2019-04-09T05:22:19.365Z,35.70
2019-04-09T05:23:19.357Z,34.00
2019-04-09T05:24:19.349Z,33.40
2019-04-09T05:25:19.339Z,32.80
2019-04-09T05:26:20.055Z,33.50
2019-04-09T05:27:20.340Z,35.50
2019-04-09T05:28:19.334Z,36.40
2019-04-09T05:29:19.982Z,36.50
2019-04-09T05:30:20.389Z,32.40
2019-04-09T05:31:19.294Z,33.30
2019-04-09T05:32:19.404Z,34.80
2019-04-09T05:33:19.278Z,35.90
2019-04-09T05:34:19.269Z,37.50
2019-04-09T05:35:19.261Z,35.40
2019-04-09T05:36:20.064Z,35.70
2019-04-09T05:37:19.249Z,39.50
2019-04-09T05:38:19.748Z,35.30
2019-04-09T05:39:19.782Z,38.30
2019-04-09T05:40:19.228Z,34.30
2019-04-09T05:41:19.452Z,39.30
2019-04-09T05:42:19.321Z,36.50
2019-04-09T05:43:19.743Z,31.50
2019-04-09T05:44:21.830Z,36.10
2019-04-09T05:45:19.185Z,36.90
2019-04-09T05:46:19.508Z,36.90
2019-04-09T05:47:19.170Z,33.00
2019-04-09T05:48:19.712Z,37.50
2019-04-09T05:49:20.749Z,37.20
2019-04-09T05:50:19.375Z,37.00
2019-04-09T05:51:19.317Z,36.00
2019-04-09T05:52:19.132Z,33.20
2019-04-09T05:53:19.961Z,38.90
2019-04-09T05:54:19.698Z,41.30
2019-04-09T05:55:19.107Z,37.50
2019-04-09T05:56:20.095Z,38.10
2019-04-09T05:57:20.038Z,37.50
2019-04-09T05:58:19.320Z,35.60
2019-04-09T05:59:19.420Z,37.70
2019-04-09T06:00:19.789Z,38.10
2019-04-09T06:01:19.794Z,38.30
2019-04-09T06:02:19.168Z,36.30
2019-04-09T06:03:19.943Z,36.40
2019-04-09T06:04:20.110Z,35.80
2019-04-09T06:05:19.029Z,41.30
2019-04-09T06:06:19.792Z,36.80
2019-04-09T06:07:19.023Z,42.60
2019-04-09T06:08:19.736Z,39.80
2019-04-09T06:09:19.006Z,43.00
2019-04-09T06:10:19.771Z,41.20
2019-04-09T06:11:19.726Z,40.40
2019-04-09T06:12:18.983Z,35.70
2019-04-09T06:13:19.565Z,36.70
2019-04-09T06:14:19.020Z,33.00
2019-04-09T06:15:19.053Z,33.70
2019-04-09T06:16:18.945Z,33.40
2019-04-09T06:17:19.064Z,32.40
2019-04-09T06:18:18.940Z,34.00
2019-04-09T06:19:18.964Z,32.10
2019-04-09T06:20:19.076Z,32.50
2019-04-09T06:21:24.400Z,32.30
2019-04-09T06:22:19.169Z,30.80
2019-04-09T06:23:18.898Z,31.00
2019-04-09T06:24:18.914Z,34.40
2019-04-09T06:25:20.533Z,37.00
2019-04-09T06:26:18.871Z,33.00
2019-04-09T06:27:18.864Z,33.20
2019-04-09T06:28:19.708Z,32.80
2019-04-09T06:29:20.624Z,38.80
2019-04-09T06:30:19.719Z,34.20
2019-04-09T06:31:18.830Z,33.10
2019-04-09T06:32:18.848Z,33.70
2019-04-09T06:33:19.693Z,36.80
2019-04-09T06:34:19.384Z,35.60
2019-04-09T06:35:19.470Z,34.90
2019-04-09T06:36:18.798Z,34.40
2019-04-09T06:37:18.804Z,32.30
2019-04-09T06:38:18.935Z,35.20
2019-04-09T06:39:18.775Z,36.50
2019-04-09T06:40:18.766Z,36.30
2019-04-09T06:41:19.305Z,37.90
2019-04-09T06:42:18.752Z,39.60
2019-04-09T06:43:19.204Z,34.00
2019-04-09T06:44:18.960Z,36.10
2019-04-09T06:45:18.730Z,41.20
2019-04-09T06:46:18.721Z,36.90
2019-04-09T06:47:18.715Z,39.90
2019-04-09T06:48:19.349Z,38.70
2019-04-09T06:49:18.700Z,36.60
2019-04-09T06:50:18.694Z,41.90
2019-04-09T06:51:29.476Z,34.90
2019-04-09T06:52:18.675Z,38.70
2019-04-09T06:53:19.424Z,36.20
2019-04-09T06:54:18.664Z,43.00
2019-04-09T06:55:18.703Z,38.70
2019-04-09T06:56:19.688Z,34.90
2019-04-09T06:57:18.641Z,40.00
2019-04-09T06:58:18.641Z,36.80
2019-04-09T06:59:26.783Z,37.60
2019-04-09T07:00:21.538Z,38.00
2019-04-09T07:01:18.612Z,42.90
2019-04-09T07:02:19.653Z,38.10
2019-04-09T07:03:18.601Z,40.90
2019-04-09T07:04:18.648Z,45.60
2019-04-09T07:05:18.590Z,39.60
2019-04-09T07:06:18.583Z,43.20
2019-04-09T07:07:18.573Z,36.00
2019-04-09T07:08:18.732Z,39.70
2019-04-09T07:09:20.962Z,40.30
2019-04-09T07:10:18.541Z,43.60
2019-04-09T07:11:21.214Z,39.90
2019-04-09T07:12:18.535Z,36.60
2019-04-09T07:13:18.524Z,43.10
2019-04-09T07:14:18.525Z,37.00
2019-04-09T07:15:19.540Z,34.60
2019-04-09T07:16:19.249Z,37.50
2019-04-09T07:17:18.502Z,39.40
2019-04-09T07:18:18.914Z,39.50
2019-04-09T07:19:18.838Z,45.20
2019-04-09T07:20:19.943Z,41.00
2019-04-09T07:21:18.473Z,39.30
2019-04-09T07:22:19.285Z,44.50
2019-04-09T07:23:18.628Z,41.30
2019-04-09T07:24:18.459Z,40.10
2019-04-09T07:25:19.447Z,35.70
2019-04-09T07:26:18.610Z,39.90
2019-04-09T07:27:21.475Z,49.80
2019-04-09T07:28:19.133Z,42.10
2019-04-09T07:29:18.421Z,40.20
2019-04-09T07:30:23.551Z,44.40
2019-04-09T07:31:18.614Z,39.70
2019-04-09T07:32:19.329Z,41.40
2019-04-09T07:33:20.225Z,39.90
2019-04-09T07:34:19.430Z,45.30
2019-04-09T07:35:20.536Z,42.30
2019-04-09T07:36:19.815Z,37.60
2019-04-09T07:37:18.661Z,41.40
2019-04-09T07:38:18.672Z,47.50
2019-04-09T07:39:18.621Z,44.30
2019-04-09T07:40:18.349Z,40.60
2019-04-09T07:41:21.139Z,38.40
2019-04-09T07:42:18.340Z,36.90
2019-04-09T07:43:22.826Z,40.20
2019-04-09T07:44:20.543Z,43.90
2019-04-09T07:45:22.143Z,45.20
2019-04-09T07:46:19.089Z,40.90
2019-04-09T07:47:21.505Z,41.30
2019-04-09T07:48:18.292Z,39.90
2019-04-09T07:49:19.318Z,41.00
2019-04-09T07:50:18.280Z,42.30
2019-04-09T07:51:20.814Z,45.30
2019-04-09T07:52:22.313Z,37.70
2019-04-09T07:53:18.259Z,40.30
2019-04-09T07:54:18.253Z,43.10
2019-04-09T07:55:23.057Z,38.40
2019-04-09T07:56:18.241Z,37.90
2019-04-09T07:57:18.234Z,41.20
2019-04-09T07:58:18.873Z,39.40
2019-04-09T07:59:23.155Z,42.00
2019-04-09T08:00:23.824Z,39.70
2019-04-09T08:01:19.569Z,44.20
2019-04-09T08:02:22.590Z,39.30
2019-04-09T08:03:18.493Z,37.90
2019-04-09T08:04:20.619Z,39.40
2019-04-09T08:05:18.183Z,40.90
2019-04-09T08:06:18.743Z,42.00
2019-04-09T08:07:21.549Z,38.10
2019-04-09T08:08:19.060Z,35.00
2019-04-09T08:09:19.216Z,40.40
2019-04-09T08:10:18.155Z,40.40
2019-04-09T08:11:18.142Z,36.40
2019-04-09T08:12:18.620Z,43.10
2019-04-09T08:13:19.487Z,36.70
2019-04-09T08:14:18.799Z,39.90
2019-04-09T08:15:18.127Z,40.10
2019-04-09T08:16:19.002Z,41.30
2019-04-09T08:17:19.187Z,37.70
2019-04-09T08:18:20.557Z,42.30
2019-04-09T08:19:20.027Z,42.70
2019-04-09T08:20:29.527Z,40.70
2019-04-09T08:21:18.127Z,41.90
2019-04-09T08:22:18.407Z,42.00
2019-04-09T08:23:19.448Z,39.60
2019-04-09T08:24:21.803Z,37.60
2019-04-09T08:25:18.900Z,39.50
2019-04-09T08:26:18.051Z,46.80
2019-04-09T08:27:18.046Z,40.80
2019-04-09T08:28:20.668Z,43.40
2019-04-09T08:29:21.990Z,39.70
2019-04-09T08:30:24.393Z,42.90
2019-04-09T08:31:20.589Z,46.50
2019-04-09T08:32:21.039Z,42.70
2019-04-09T08:33:21.936Z,47.30
2019-04-09T08:34:18.007Z,45.30
2019-04-09T08:35:18.019Z,48.10
2019-04-09T08:36:18.562Z,47.10
2019-04-09T08:37:21.223Z,45.60
2019-04-09T08:38:18.091Z,44.70
2019-04-09T08:39:18.855Z,40.30
2019-04-09T08:40:17.975Z,48.20
2019-04-09T08:41:21.003Z,44.30
2019-04-09T08:42:17.972Z,48.80
2019-04-09T08:43:17.958Z,44.60
2019-04-09T08:44:19.178Z,44.50
2019-04-09T08:45:20.885Z,43.70
2019-04-09T08:46:17.937Z,50.10
2019-04-09T08:47:18.888Z,48.10
2019-04-09T08:48:17.977Z,41.50
2019-04-09T08:49:19.222Z,48.70
2019-04-09T08:50:18.752Z,43.40
2019-04-09T08:51:18.847Z,49.90
2019-04-09T08:52:18.847Z,46.90
2019-04-09T08:53:18.851Z,49.60
2019-04-09T08:54:21.562Z,46.20
2019-04-09T08:55:17.913Z,43.10
2019-04-09T08:56:17.882Z,45.30
2019-04-09T08:57:18.748Z,44.60
2019-04-09T08:58:21.570Z,42.40
2019-04-09T08:59:20.510Z,40.40
2019-04-09T09:00:38.120Z,41.40
2019-04-09T09:01:39.106Z,49.70
2019-04-09T09:02:23.688Z,48.30
2019-04-09T09:03:22.305Z,48.20
2019-04-09T09:04:18.578Z,53.50
2019-04-09T09:05:19.617Z,46.70
2019-04-09T09:06:19.007Z,44.80
2019-04-09T09:07:18.312Z,43.40
2019-04-09T09:08:18.862Z,47.50
2019-04-09T09:09:18.008Z,48.40
2019-04-09T09:10:19.773Z,48.50
2019-04-09T09:11:18.053Z,47.70
2019-04-09T09:12:19.675Z,52.80
2019-04-09T09:13:20.255Z,51.10
2019-04-09T09:14:18.244Z,45.60
2019-04-09T09:15:20.659Z,44.40
2019-04-09T09:16:17.773Z,47.20
2019-04-09T09:17:17.773Z,45.90
2019-04-09T09:18:20.299Z,45.40
2019-04-09T09:19:18.299Z,49.60
2019-04-09T09:20:18.475Z,47.70
2019-04-09T09:21:27.080Z,49.40
2019-04-09T09:22:18.451Z,48.40
2019-04-09T09:23:17.737Z,48.50
2019-04-09T09:24:20.047Z,46.70
2019-04-09T09:25:17.729Z,46.70
2019-04-09T09:26:17.883Z,42.10
2019-04-09T09:27:18.213Z,43.10
2019-04-09T09:28:18.540Z,43.10
2019-04-09T09:29:17.708Z,48.70
2019-04-09T09:30:17.830Z,46.90
2019-04-09T09:31:24.427Z,44.00
2019-04-09T09:32:17.698Z,42.70
2019-04-09T09:33:17.924Z,44.00
2019-04-09T09:34:20.640Z,47.40
2019-04-09T09:35:18.039Z,45.60
2019-04-09T09:36:17.679Z,43.70
2019-04-09T09:37:19.800Z,44.20
2019-04-09T09:38:20.264Z,46.70
2019-04-09T09:39:18.658Z,42.10
2019-04-09T09:40:17.714Z,43.40
2019-04-09T09:41:17.929Z,42.40
2019-04-09T09:42:17.653Z,44.20
2019-04-09T09:43:20.383Z,43.30
2019-04-09T09:44:21.474Z,40.10
2019-04-09T09:45:18.622Z,45.80
2019-04-09T09:46:17.642Z,44.60
2019-04-09T09:47:17.749Z,39.50
2019-04-09T09:48:20.372Z,40.10
2019-04-09T09:49:17.618Z,45.10
2019-04-09T09:50:20.163Z,45.00
2019-04-09T09:51:17.949Z,43.50
2019-04-09T09:52:18.821Z,38.10
2019-04-09T09:53:17.737Z,41.80
2019-04-09T09:54:18.552Z,40.90
2019-04-09T09:55:18.677Z,38.30
2019-04-09T09:56:17.591Z,44.80
2019-04-09T09:57:18.528Z,42.60
2019-04-09T09:58:21.272Z,38.60
2019-04-09T09:59:20.636Z,41.80
2019-04-09T10:00:17.892Z,39.90
2019-04-09T10:01:25.861Z,37.50
2019-04-09T10:02:17.578Z,40.90
2019-04-09T10:03:17.569Z,41.90
2019-04-09T10:04:19.506Z,38.90
2019-04-09T10:05:20.532Z,47.30
2019-04-09T10:06:20.773Z,39.80
2019-04-09T10:07:31.626Z,41.00
2019-04-09T10:08:20.010Z,39.90
2019-04-09T10:09:19.180Z,40.80
2019-04-09T10:10:17.544Z,36.80
2019-04-09T10:11:17.540Z,39.70
2019-04-09T10:12:29.834Z,41.70
2019-04-09T10:13:17.616Z,45.40
2019-04-09T10:14:17.526Z,42.10
2019-04-09T10:15:21.105Z,44.10
2019-04-09T10:16:17.660Z,39.60
2019-04-09T10:17:21.081Z,47.20
2019-04-09T10:18:17.514Z,41.10
2019-04-09T10:19:22.124Z,40.40
2019-04-09T10:20:18.705Z,40.90
2019-04-09T10:21:18.367Z,45.00
2019-04-09T10:22:20.610Z,42.60
2019-04-09T10:23:18.193Z,38.40
2019-04-09T10:24:27.318Z,42.00
2019-04-09T10:25:17.530Z,39.50
2019-04-09T10:26:19.182Z,43.80
2019-04-09T10:27:19.149Z,42.40
2019-04-09T10:28:22.744Z,42.30
2019-04-09T10:29:17.640Z,41.40
2019-04-09T10:30:18.306Z,47.90
2019-04-09T10:31:23.768Z,44.80
2019-04-09T10:32:17.597Z,43.10
2019-04-09T10:33:18.342Z,46.30
2019-04-09T10:34:21.470Z,50.50
2019-04-09T10:35:17.463Z,42.80
2019-04-09T10:36:18.406Z,42.90
2019-04-09T10:37:21.142Z,40.80
2019-04-09T10:38:21.607Z,45.50
2019-04-09T10:39:17.945Z,41.40
2019-04-09T10:40:19.644Z,38.90
2019-04-09T10:41:27.924Z,43.20
2019-04-09T10:42:17.540Z,46.50
2019-04-09T10:43:17.434Z,41.30
2019-04-09T10:44:18.343Z,43.90
2019-04-09T10:45:19.796Z,45.10
2019-04-09T10:46:18.659Z,40.30
2019-04-09T10:47:18.203Z,41.50
2019-04-09T10:48:18.328Z,44.70
2019-04-09T10:49:22.289Z,45.90
2019-04-09T10:50:17.664Z,40.30
2019-04-09T10:51:17.600Z,40.60
2019-04-09T10:52:23.915Z,45.30
2019-04-09T10:53:18.854Z,41.90
2019-04-09T10:54:17.513Z,40.40
2019-04-09T10:55:20.632Z,42.90
2019-04-09T10:56:19.197Z,39.50
2019-04-09T10:57:17.548Z,42.60
2019-04-09T10:58:21.308Z,42.00
2019-04-09T10:59:17.542Z,38.60
2019-04-09T11:00:18.584Z,48.10
2019-04-09T11:01:17.379Z,43.50
2019-04-09T11:02:17.379Z,45.60
2019-04-09T11:03:17.379Z,44.10
2019-04-09T11:04:17.371Z,42.60
2019-04-09T11:05:18.021Z,43.50
2019-04-09T11:06:17.965Z,45.50
2019-04-09T11:07:17.367Z,40.70
2019-04-09T11:08:17.362Z,42.90
2019-04-09T11:09:17.360Z,42.80
2019-04-09T11:10:23.133Z,41.50
2019-04-09T11:11:21.390Z,45.10
2019-04-09T11:12:17.354Z,47.30
2019-04-09T11:13:17.354Z,40.30
2019-04-09T11:14:17.347Z,48.90
2019-04-09T11:15:18.735Z,42.40
2019-04-09T11:16:17.342Z,40.60
2019-04-09T11:17:17.337Z,43.60
2019-04-09T11:18:20.660Z,44.00
2019-04-09T11:19:21.038Z,41.00
2019-04-09T11:20:17.335Z,41.50
2019-04-09T11:21:17.452Z,43.40
2019-04-09T11:22:19.850Z,42.70
2019-04-09T11:23:21.195Z,43.10
2019-04-09T11:24:17.731Z,41.90
2019-04-09T11:25:17.324Z,49.70
2019-04-09T11:26:17.322Z,44.30
2019-04-09T11:27:19.491Z,43.40
2019-04-09T11:28:17.997Z,46.30
2019-04-09T11:29:17.310Z,49.40
2019-04-09T11:30:18.161Z,45.20
2019-04-09T11:31:17.307Z,45.70
2019-04-09T11:32:17.987Z,49.40
2019-04-09T11:33:18.276Z,52.50
2019-04-09T11:34:17.470Z,45.60
2019-04-09T11:35:17.294Z,50.40
2019-04-09T11:36:17.292Z,44.40
2019-04-09T11:37:17.964Z,47.70
2019-04-09T11:38:17.297Z,46.60
2019-04-09T11:39:18.208Z,43.40
2019-04-09T11:40:17.285Z,42.20
2019-04-09T11:41:17.276Z,42.80
2019-04-09T11:42:17.271Z,42.30
2019-04-09T11:43:18.256Z,43.60
2019-04-09T11:44:17.266Z,46.20
2019-04-09T11:45:17.647Z,43.60
2019-04-09T11:46:17.922Z,44.10
2019-04-09T11:47:17.263Z,46.40
2019-04-09T11:48:17.261Z,48.90
2019-04-09T11:49:18.362Z,43.70
2019-04-09T11:50:18.252Z,42.00
2019-04-09T11:51:17.411Z,46.20
2019-04-09T11:52:18.400Z,44.30
2019-04-09T11:53:17.614Z,42.10
2019-04-09T11:54:17.235Z,47.70
2019-04-09T11:55:17.239Z,44.70
2019-04-09T11:56:17.978Z,44.00
2019-04-09T11:57:17.234Z,45.60
2019-04-09T11:58:17.285Z,47.30
2019-04-09T11:59:23.852Z,43.00
2019-04-09T12:00:17.532Z,43.30
2019-04-09T12:01:17.218Z,44.90
2019-04-09T12:02:17.868Z,47.90
2019-04-09T12:03:17.215Z,46.60
2019-04-09T12:04:17.212Z,40.00
2019-04-09T12:05:17.211Z,42.10
2019-04-09T12:06:17.490Z,47.20
2019-04-09T12:07:17.790Z,46.40
2019-04-09T12:08:17.203Z,49.70
2019-04-09T12:09:17.276Z,44.30
2019-04-09T12:10:18.243Z,48.40
2019-04-09T12:11:17.191Z,45.50
2019-04-09T12:12:17.788Z,48.60
2019-04-09T12:13:18.122Z,44.90
2019-04-09T12:14:18.083Z,42.20
2019-04-09T12:15:18.305Z,44.70
2019-04-09T12:16:17.386Z,44.80
2019-04-09T12:17:18.834Z,40.50
2019-04-09T12:18:17.723Z,43.00
2019-04-09T12:19:17.172Z,46.50
2019-04-09T12:20:17.296Z,44.20
2019-04-09T12:21:18.023Z,48.30
2019-04-09T12:22:17.170Z,44.40
2019-04-09T12:23:18.245Z,45.20
2019-04-09T12:24:17.162Z,39.60
2019-04-09T12:25:17.918Z,41.90
2019-04-09T12:26:17.157Z,42.10
2019-04-09T12:27:18.741Z,47.90
2019-04-09T12:28:17.864Z,45.30
2019-04-09T12:29:23.146Z,42.60
2019-04-09T12:30:17.421Z,40.40
2019-04-09T12:31:17.145Z,44.30
2019-04-09T12:32:21.669Z,44.50
2019-04-09T12:33:17.610Z,44.20
2019-04-09T12:34:17.908Z,34.60
2019-04-09T12:35:17.200Z,43.00
2019-04-09T12:36:17.138Z,41.80
2019-04-09T12:37:17.474Z,42.80
2019-04-09T12:38:17.887Z,45.20
2019-04-09T12:39:18.055Z,41.00
2019-04-09T12:40:17.132Z,42.10
2019-04-09T12:41:17.342Z,42.10
2019-04-09T12:42:17.128Z,40.90
2019-04-09T12:43:17.132Z,44.60
2019-04-09T12:44:18.325Z,43.60
2019-04-09T12:45:17.293Z,40.80
2019-04-09T12:46:18.718Z,44.40
2019-04-09T12:47:17.606Z,43.60
2019-04-09T12:48:17.116Z,44.40
2019-04-09T12:49:17.111Z,40.80
2019-04-09T12:50:18.033Z,42.30
2019-04-09T12:51:17.109Z,42.30
2019-04-09T12:52:17.694Z,40.50